Kouts, Indiana
Current Conditions -  °F | °C
As of 7:56 PM on Sunday 25 Jan 2015 (Local Time) from KVPZ Reporting Station
Overcast Overcast  
Wind Chill: 14°   Ceiling: 3600
Heat Index: 24°   Visibility: 10mi
Dew Point: 19°   Wind: 9mph
Humidity: 81%   Direction: 30°NNE
Pressure: 29.93"   Gusts: NA
Location:  41.32°N, 87.03°W
Report Text: KVPZ 260156Z AUTO 03008KT 10SM OVC036 M04/M07 A2993 RMK AO2 SNE31 SLP146 P0000 T10441072 TSNO
Loading
Personal Weather Stations






























Interactive Weather Map New forecast layout! Learn more

10-Day Weather Forecast

Advertisements
Track Severe Weather on mobile